Kenai, AK (99611)

12:44 PM AKDT on July 26, 2016 (GMT -0800)
coastal | | Change Station

Elev 90 ft 60.57 °N, 151.29 °W | Updated 36 seconds ago

Overcast
Overcast
66.2 °F
Feels Like 66.2 °F
N
1.7
Wind Variable Wind from NNW

Today
High -- | Low -- °F
--% Chance of Precip.
Yesterday
High -- | Low -- °F
Precip. -- in
Pressure 29.86 in
Visibility 10.0 miles
Clouds Overcast 10000 ft
Dew Point 56 °F
Humidity 70%
Rainfall 0.00 in
Snow Depth Not available.
5:29 AM 10:51 PM
Waning Gibbous, 51% visible
METAR PAEN 261953Z 02009KT 10SM OVC100 17/12 A2985 RMK AO2 SLP111 T01670122
Pressure 29.86 in
Visibility 10.0 miles
Clouds Overcast 10000 ft
Dew Point 56 °F
Humidity 70%
Rainfall 0.00 in
Snow Depth Not available.
5:29 AM 10:51 PM
Waning Gibbous, 51% visible
METAR PAEN 261953Z 02009KT 10SM OVC100 17/12 A2985 RMK AO2 SLP111 T01670122

10-Day Weather Forecast

Almanac

Astronomy

Jul. 26, 2016 Rise Set
Actual Time
Civil Twilight
Nautical Twilight
Astronomical Twilight
Moon
Length of Visible Light
Length of Day
Tomorrow will be .
, % of the Moon is Illuminated

Today's Extremes

State Highs State Lows

Community

WunderPhotos

Upload Photos

1,927,678 photos uploaded!

WunderBlog® & News

Nearby

Air Quality

  Air Quality AQ Index Pollutant
Not available.

Snow Depth

Station Depth Elevation

Earthquake Activity

City Distance Mag. Time & Date
Minimum magnitude displayed is 2.5.

Coastal Water Temperatures

Place Temperature

Stations

Nearby Weather Stations

Station Location Temp. Windchill Dew Point Humidity Wind Precip. Elev Updated Type
                   

Watches & Warnings

There are currently no watches in effect.